sensor_id;sensor_type;location;lat;lon;timestamp;pressure;altitude;pressure_sealevel;temperature;humidity
59009;BME280;44794;42.652;23.318;2023-04-25T00:01:35;93632.38;;;10.09;100.00
59009;BME280;44794;42.652;23.318;2023-04-25T00:04:01;93624.97;;;10.05;100.00
59009;BME280;44794;42.652;23.318;2023-04-25T00:06:28;93628.66;;;10.02;100.00
59009;BME280;44794;42.652;23.318;2023-04-25T00:08:55;93619.75;;;9.95;100.00
59009;BME280;44794;42.652;23.318;2023-04-25T00:11:22;93609.47;;;9.94;100.00
59009;BME280;44794;42.652;23.318;2023-04-25T00:13:47;93598.84;;;9.97;100.00
59009;BME280;44794;42.652;23.318;2023-04-25T00:16:15;93590.72;;;10.01;100.00
59009;BME280;44794;42.652;23.318;2023-04-25T00:18:42;93576.50;;;10.05;100.00
59009;BME280;44794;42.652;23.318;2023-04-25T00:21:08;93571.31;;;10.05;100.00
59009;BME280;44794;42.652;23.318;2023-04-25T00:23:33;93564.09;;;9.99;100.00
59009;BME280;44794;42.652;23.318;2023-04-25T00:26:01;93557.38;;;9.97;100.00
59009;BME280;44794;42.652;23.318;2023-04-25T00:28:27;93553.28;;;9.94;100.00
59009;BME280;44794;42.652;23.318;2023-04-25T00:30:52;93563.13;;;10.00;100.00
59009;BME280;44794;42.652;23.318;2023-04-25T00:33:18;93573.50;;;10.00;100.00
59009;BME280;44794;42.652;23.318;2023-04-25T00:35:43;93562.34;;;10.09;100.00
59009;BME280;44794;42.652;23.318;2023-04-25T00:38:09;93548.13;;;10.04;100.00
59009;BME280;44794;42.652;23.318;2023-04-25T00:40:34;93550.31;;;9.99;100.00
59009;BME280;44794;42.652;23.318;2023-04-25T00:43:00;93545.94;;;9.99;100.00
59009;BME280;44794;42.652;23.318;2023-04-25T00:45:29;93535.56;;;9.99;100.00
59009;BME280;44794;42.652;23.318;2023-04-25T00:47:55;93519.28;;;9.88;100.00
59009;BME280;44794;42.652;23.318;2023-04-25T00:50:21;93518.44;;;9.78;100.00
59009;BME280;44794;42.652;23.318;2023-04-25T00:52:46;93516.66;;;9.78;100.00
59009;BME280;44794;42.652;23.318;2023-04-25T00:55:12;93492.38;;;9.79;100.00
59009;BME280;44794;42.652;23.318;2023-04-25T00:57:39;93490.88;;;9.77;100.00
59009;BME280;44794;42.652;23.318;2023-04-25T01:00:06;93496.75;;;9.88;100.00
59009;BME280;44794;42.652;23.318;2023-04-25T01:02:33;93507.66;;;9.82;100.00
59009;BME280;44794;42.652;23.318;2023-04-25T01:04:59;93510.69;;;9.87;100.00
59009;BME280;44794;42.652;23.318;2023-04-25T01:07:25;93499.25;;;9.99;100.00
59009;BME280;44794;42.652;23.318;2023-04-25T01:09:52;93490.91;;;10.05;100.00
59009;BME280;44794;42.652;23.318;2023-04-25T01:12:17;93485.47;;;10.08;100.00
59009;BME280;44794;42.652;23.318;2023-04-25T01:14:43;93483.28;;;10.13;100.00
59009;BME280;44794;42.652;23.318;2023-04-25T01:17:09;93482.88;;;10.08;100.00
59009;BME280;44794;42.652;23.318;2023-04-25T01:19:35;93476.44;;;10.03;100.00
59009;BME280;44794;42.652;23.318;2023-04-25T01:22:00;93472.38;;;10.00;100.00
59009;BME280;44794;42.652;23.318;2023-04-25T01:24:26;93462.63;;;9.93;100.00
59009;BME280;44794;42.652;23.318;2023-04-25T01:26:53;93459.22;;;9.92;100.00
59009;BME280;44794;42.652;23.318;2023-04-25T01:29:21;93479.56;;;9.87;100.00
59009;BME280;44794;42.652;23.318;2023-04-25T01:31:47;93477.78;;;9.78;100.00
59009;BME280;44794;42.652;23.318;2023-04-25T01:34:13;93490.59;;;9.70;100.00
59009;BME280;44794;42.652;23.318;2023-04-25T01:36:39;93487.75;;;9.73;100.00
59009;BME280;44794;42.652;23.318;2023-04-25T01:39:06;93488.28;;;9.77;100.00
59009;BME280;44794;42.652;23.318;2023-04-25T01:41:32;93491.28;;;9.82;100.00
59009;BME280;44794;42.652;23.318;2023-04-25T01:43:57;93489.41;;;9.84;100.00
59009;BME280;44794;42.652;23.318;2023-04-25T01:46:23;93486.50;;;9.87;100.00
59009;BME280;44794;42.652;23.318;2023-04-25T01:48:49;93482.16;;;9.78;100.00
59009;BME280;44794;42.652;23.318;2023-04-25T01:51:14;93488.41;;;9.75;100.00
59009;BME280;44794;42.652;23.318;2023-04-25T01:53:40;93498.13;;;9.73;100.00
59009;BME280;44794;42.652;23.318;2023-04-25T01:56:06;93502.75;;;9.61;100.00
59009;BME280;44794;42.652;23.318;2023-04-25T01:58:32;93504.34;;;9.62;100.00
59009;BME280;44794;42.652;23.318;2023-04-25T02:00:57;93500.16;;;9.61;100.00
59009;BME280;44794;42.652;23.318;2023-04-25T02:03:23;93496.19;;;9.66;100.00
59009;BME280;44794;42.652;23.318;2023-04-25T02:05:48;93487.19;;;9.70;100.00
59009;BME280;44794;42.652;23.318;2023-04-25T02:08:13;93482.66;;;9.72;100.00
59009;BME280;44794;42.652;23.318;2023-04-25T02:10:39;93486.34;;;9.69;100.00
59009;BME280;44794;42.652;23.318;2023-04-25T02:13:04;93494.13;;;9.60;100.00
59009;BME280;44794;42.652;23.318;2023-04-25T02:15:30;93484.69;;;9.59;100.00
59009;BME280;44794;42.652;23.318;2023-04-25T02:17:56;93472.03;;;9.66;100.00
59009;BME280;44794;42.652;23.318;2023-04-25T02:20:22;93470.00;;;9.60;100.00
59009;BME280;44794;42.652;23.318;2023-04-25T02:22:48;93470.53;;;9.54;100.00
59009;BME280;44794;42.652;23.318;2023-04-25T02:25:14;93458.38;;;9.54;100.00
59009;BME280;44794;42.652;23.318;2023-04-25T02:27:41;93462.31;;;9.49;100.00
59009;BME280;44794;42.652;23.318;2023-04-25T02:30:07;93456.47;;;9.47;100.00
59009;BME280;44794;42.652;23.318;2023-04-25T02:32:33;93456.88;;;9.33;100.00
59009;BME280;44794;42.652;23.318;2023-04-25T02:35:02;93450.16;;;9.30;100.00
59009;BME280;44794;42.652;23.318;2023-04-25T02:37:34;93448.94;;;9.25;100.00
59009;BME280;44794;42.652;23.318;2023-04-25T02:39:59;93454.38;;;9.22;100.00
59009;BME280;44794;42.652;23.318;2023-04-25T02:42:26;93461.41;;;9.10;100.00
59009;BME280;44794;42.652;23.318;2023-04-25T02:44:51;93452.16;;;9.17;100.00
59009;BME280;44794;42.652;23.318;2023-04-25T02:47:17;93451.34;;;9.07;100.00
59009;BME280;44794;42.652;23.318;2023-04-25T02:49:42;93454.34;;;9.12;100.00
59009;BME280;44794;42.652;23.318;2023-04-25T02:52:08;93446.97;;;9.08;100.00
59009;BME280;44794;42.652;23.318;2023-04-25T02:54:34;93430.31;;;9.01;100.00
59009;BME280;44794;42.652;23.318;2023-04-25T02:57:00;93430.72;;;8.96;100.00
59009;BME280;44794;42.652;23.318;2023-04-25T02:59:26;93431.25;;;9.00;100.00
59009;BME280;44794;42.652;23.318;2023-04-25T03:01:51;93426.75;;;8.93;100.00
59009;BME280;44794;42.652;23.318;2023-04-25T03:04:17;93421.28;;;8.86;100.00
59009;BME280;44794;42.652;23.318;2023-04-25T03:06:44;93416.09;;;8.86;100.00
59009;BME280;44794;42.652;23.318;2023-04-25T03:09:09;93411.06;;;8.85;100.00
59009;BME280;44794;42.652;23.318;2023-04-25T03:11:38;93410.38;;;8.83;100.00
59009;BME280;44794;42.652;23.318;2023-04-25T03:14:03;93409.00;;;8.79;100.00
59009;BME280;44794;42.652;23.318;2023-04-25T03:16:29;93405.19;;;8.83;100.00
59009;BME280;44794;42.652;23.318;2023-04-25T03:18:54;93406.28;;;8.80;100.00
59009;BME280;44794;42.652;23.318;2023-04-25T03:21:20;93411.31;;;8.82;100.00
59009;BME280;44794;42.652;23.318;2023-04-25T03:23:45;93409.56;;;8.82;100.00
59009;BME280;44794;42.652;23.318;2023-04-25T03:26:11;93400.56;;;8.86;100.00
59009;BME280;44794;42.652;23.318;2023-04-25T03:28:36;93404.97;;;8.95;100.00
59009;BME280;44794;42.652;23.318;2023-04-25T03:31:01;93402.13;;;8.98;100.00
59009;BME280;44794;42.652;23.318;2023-04-25T03:33:27;93404.19;;;9.04;100.00
59009;BME280;44794;42.652;23.318;2023-04-25T03:35:52;93387.69;;;9.05;100.00
59009;BME280;44794;42.652;23.318;2023-04-25T03:38:18;93389.19;;;9.07;100.00
59009;BME280;44794;42.652;23.318;2023-04-25T03:40:44;93398.47;;;9.10;100.00
59009;BME280;44794;42.652;23.318;2023-04-25T03:43:09;93387.72;;;9.14;100.00
59009;BME280;44794;42.652;23.318;2023-04-25T03:45:35;93384.28;;;9.14;100.00
59009;BME280;44794;42.652;23.318;2023-04-25T03:48:00;93382.38;;;9.16;100.00
59009;BME280;44794;42.652;23.318;2023-04-25T03:50:26;93381.69;;;9.23;100.00
59009;BME280;44794;42.652;23.318;2023-04-25T03:52:51;93373.41;;;9.29;100.00
59009;BME280;44794;42.652;23.318;2023-04-25T03:55:16;93379.56;;;9.47;100.00
59009;BME280;44794;42.652;23.318;2023-04-25T03:57:42;93378.44;;;9.59;100.00
59009;BME280;44794;42.652;23.318;2023-04-25T04:00:08;93375.44;;;9.64;100.00
59009;BME280;44794;42.652;23.318;2023-04-25T04:02:33;93379.13;;;9.70;100.00
59009;BME280;44794;42.652;23.318;2023-04-25T04:05:00;93391.13;;;9.81;100.00
59009;BME280;44794;42.652;23.318;2023-04-25T04:07:25;93393.06;;;9.88;100.00
59009;BME280;44794;42.652;23.318;2023-04-25T04:09:51;93388.94;;;9.95;100.00
59009;BME280;44794;42.652;23.318;2023-04-25T04:12:16;93390.88;;;10.03;100.00
59009;BME280;44794;42.652;23.318;2023-04-25T04:14:42;93405.03;;;10.18;100.00
59009;BME280;44794;42.652;23.318;2023-04-25T04:17:07;93407.88;;;10.34;100.00
59009;BME280;44794;42.652;23.318;2023-04-25T04:19:32;93428.19;;;10.48;100.00
59009;BME280;44794;42.652;23.318;2023-04-25T04:21:58;93451.03;;;10.44;100.00
59009;BME280;44794;42.652;23.318;2023-04-25T04:24:23;93461.81;;;10.40;100.00
59009;BME280;44794;42.652;23.318;2023-04-25T04:26:49;93476.81;;;10.46;100.00
59009;BME280;44794;42.652;23.318;2023-04-25T04:29:16;93485.41;;;10.46;100.00
59009;BME280;44794;42.652;23.318;2023-04-25T04:31:49;93477.09;;;10.33;100.00
59009;BME280;44794;42.652;23.318;2023-04-25T04:34:14;93482.47;;;10.22;100.00
59009;BME280;44794;42.652;23.318;2023-04-25T04:36:41;93474.16;;;10.09;100.00
59009;BME280;44794;42.652;23.318;2023-04-25T04:39:07;93469.50;;;10.13;100.00
59009;BME280;44794;42.652;23.318;2023-04-25T04:41:34;93461.97;;;10.38;100.00
59009;BME280;44794;42.652;23.318;2023-04-25T04:43:59;93459.03;;;10.60;100.00
59009;BME280;44794;42.652;23.318;2023-04-25T04:46:26;93456.78;;;10.84;100.00
59009;BME280;44794;42.652;23.318;2023-04-25T04:48:53;93460.16;;;10.94;100.00
59009;BME280;44794;42.652;23.318;2023-04-25T04:51:19;93473.69;;;10.97;100.00
59009;BME280;44794;42.652;23.318;2023-04-25T04:53:45;93486.13;;;10.94;100.00
59009;BME280;44794;42.652;23.318;2023-04-25T04:56:11;93505.72;;;10.79;100.00
59009;BME280;44794;42.652;23.318;2023-04-25T04:58:37;93519.94;;;10.75;100.00
59009;BME280;44794;42.652;23.318;2023-04-25T05:01:02;93540.56;;;10.67;100.00
59009;BME280;44794;42.652;23.318;2023-04-25T05:03:28;93537.75;;;10.42;100.00
59009;BME280;44794;42.652;23.318;2023-04-25T05:05:53;93517.53;;;10.26;100.00
59009;BME280;44794;42.652;23.318;2023-04-25T05:08:19;93534.63;;;10.38;100.00
59009;BME280;44794;42.652;23.318;2023-04-25T05:10:44;93519.59;;;10.51;100.00
59009;BME280;44794;42.652;23.318;2023-04-25T05:13:10;93527.38;;;10.51;100.00
59009;BME280;44794;42.652;23.318;2023-04-25T05:15:35;93546.50;;;10.41;100.00
59009;BME280;44794;42.652;23.318;2023-04-25T05:18:01;93530.09;;;10.49;100.00
59009;BME280;44794;42.652;23.318;2023-04-25T05:20:26;93550.03;;;10.49;100.00
59009;BME280;44794;42.652;23.318;2023-04-25T05:22:52;93538.31;;;10.45;100.00
59009;BME280;44794;42.652;23.318;2023-04-25T05:25:17;93539.50;;;10.50;100.00
59009;BME280;44794;42.652;23.318;2023-04-25T05:27:43;93534.03;;;10.63;100.00
59009;BME280;44794;42.652;23.318;2023-04-25T05:30:08;93531.72;;;10.60;100.00
59009;BME280;44794;42.652;23.318;2023-04-25T05:32:34;93544.84;;;10.49;100.00
59009;BME280;44794;42.652;23.318;2023-04-25T05:35:01;93536.78;;;10.43;100.00
59009;BME280;44794;42.652;23.318;2023-04-25T05:37:26;93534.75;;;10.55;100.00
59009;BME280;44794;42.652;23.318;2023-04-25T05:39:52;93525.28;;;10.64;100.00
59009;BME280;44794;42.652;23.318;2023-04-25T05:42:17;93522.94;;;10.80;100.00
59009;BME280;44794;42.652;23.318;2023-04-25T05:44:43;93523.53;;;11.10;100.00
59009;BME280;44794;42.652;23.318;2023-04-25T05:47:08;93525.19;;;11.11;100.00
59009;BME280;44794;42.652;23.318;2023-04-25T05:49:34;93541.00;;;11.18;100.00
59009;BME280;44794;42.652;23.318;2023-04-25T05:52:00;93550.47;;;11.45;100.00
59009;BME280;44794;42.652;23.318;2023-04-25T05:54:25;93558.78;;;11.58;100.00
59009;BME280;44794;42.652;23.318;2023-04-25T05:56:51;93583.84;;;11.50;100.00
59009;BME280;44794;42.652;23.318;2023-04-25T05:59:16;93587.81;;;11.54;100.00
59009;BME280;44794;42.652;23.318;2023-04-25T06:01:41;93581.06;;;11.61;100.00
59009;BME280;44794;42.652;23.318;2023-04-25T06:04:07;93580.59;;;11.75;100.00
59009;BME280;44794;42.652;23.318;2023-04-25T06:06:32;93596.13;;;11.67;100.00
59009;BME280;44794;42.652;23.318;2023-04-25T06:08:58;93602.34;;;11.83;100.00
59009;BME280;44794;42.652;23.318;2023-04-25T06:11:23;93613.31;;;12.04;100.00
59009;BME280;44794;42.652;23.318;2023-04-25T06:13:49;93611.19;;;12.17;100.00
59009;BME280;44794;42.652;23.318;2023-04-25T06:16:14;93614.59;;;12.17;100.00
59009;BME280;44794;42.652;23.318;2023-04-25T06:18:40;93618.28;;;12.42;100.00
59009;BME280;44794;42.652;23.318;2023-04-25T06:21:05;93625.06;;;12.70;100.00
59009;BME280;44794;42.652;23.318;2023-04-25T06:23:31;93635.91;;;12.92;100.00
59009;BME280;44794;42.652;23.318;2023-04-25T06:25:57;93641.97;;;12.83;98.90
59009;BME280;44794;42.652;23.318;2023-04-25T06:28:23;93641.59;;;12.61;99.28
59009;BME280;44794;42.652;23.318;2023-04-25T06:30:50;93645.19;;;12.77;100.00
59009;BME280;44794;42.652;23.318;2023-04-25T06:33:15;93652.41;;;13.00;99.15
59009;BME280;44794;42.652;23.318;2023-04-25T06:35:40;93659.59;;;13.92;97.65
59009;BME280;44794;42.652;23.318;2023-04-25T06:38:06;93677.94;;;14.90;90.69
59009;BME280;44794;42.652;23.318;2023-04-25T06:40:31;93698.59;;;16.51;81.32
59009;BME280;44794;42.652;23.318;2023-04-25T06:42:57;93712.16;;;17.31;77.48
59009;BME280;44794;42.652;23.318;2023-04-25T06:45:23;93727.41;;;17.94;73.31
59009;BME280;44794;42.652;23.318;2023-04-25T06:47:48;93726.03;;;17.84;71.77
59009;BME280;44794;42.652;23.318;2023-04-25T06:50:14;93728.00;;;17.82;70.87
59009;BME280;44794;42.652;23.318;2023-04-25T06:52:39;93725.56;;;17.35;72.75
59009;BME280;44794;42.652;23.318;2023-04-25T06:55:05;93720.00;;;17.00;73.98
59009;BME280;44794;42.652;23.318;2023-04-25T06:57:31;93715.75;;;16.69;74.12
59009;BME280;44794;42.652;23.318;2023-04-25T06:59:56;93700.00;;;16.31;73.71
59009;BME280;44794;42.652;23.318;2023-04-25T07:02:21;93705.53;;;16.28;75.32
59009;BME280;44794;42.652;23.318;2023-04-25T07:04:47;93700.88;;;15.83;75.90
59009;BME280;44794;42.652;23.318;2023-04-25T07:07:13;93709.72;;;15.35;77.89
59009;BME280;44794;42.652;23.318;2023-04-25T07:09:38;93707.75;;;15.37;80.61
59009;BME280;44794;42.652;23.318;2023-04-25T07:12:04;93707.09;;;15.35;78.88
59009;BME280;44794;42.652;23.318;2023-04-25T07:14:29;93708.75;;;15.44;79.79
59009;BME280;44794;42.652;23.318;2023-04-25T07:16:55;93701.22;;;15.57;80.63
59009;BME280;44794;42.652;23.318;2023-04-25T07:19:23;93697.97;;;15.31;81.09
59009;BME280;44794;42.652;23.318;2023-04-25T07:21:52;93693.00;;;15.20;79.95
59009;BME280;44794;42.652;23.318;2023-04-25T07:24:17;93683.91;;;15.32;81.90
59009;BME280;44794;42.652;23.318;2023-04-25T07:26:44;93689.06;;;15.16;80.77
59009;BME280;44794;42.652;23.318;2023-04-25T07:29:10;93693.16;;;15.18;79.87
59009;BME280;44794;42.652;23.318;2023-04-25T07:31:35;93695.50;;;15.45;80.40
59009;BME280;44794;42.652;23.318;2023-04-25T07:34:01;93691.88;;;15.30;78.53
59009;BME280;44794;42.652;23.318;2023-04-25T07:36:26;93690.69;;;15.09;80.40
59009;BME280;44794;42.652;23.318;2023-04-25T07:38:52;93691.56;;;15.25;78.79
59009;BME280;44794;42.652;23.318;2023-04-25T07:41:17;93697.00;;;15.40;76.76
59009;BME280;44794;42.652;23.318;2023-04-25T07:43:43;93689.09;;;15.87;76.67
59009;BME280;44794;42.652;23.318;2023-04-25T07:46:08;93696.38;;;16.24;74.15
59009;BME280;44794;42.652;23.318;2023-04-25T07:48:33;93701.75;;;16.38;72.97
59009;BME280;44794;42.652;23.318;2023-04-25T07:50:59;93706.06;;;16.23;70.92
59009;BME280;44794;42.652;23.318;2023-04-25T07:53:24;93691.13;;;16.24;71.31
59009;BME280;44794;42.652;23.318;2023-04-25T07:55:50;93694.84;;;16.45;72.85
59009;BME280;44794;42.652;23.318;2023-04-25T07:58:16;93706.88;;;16.70;70.22
59009;BME280;44794;42.652;23.318;2023-04-25T08:00:46;93700.50;;;17.25;69.20
59009;BME280;44794;42.652;23.318;2023-04-25T08:03:11;93706.25;;;17.29;63.31
59009;BME280;44794;42.652;23.318;2023-04-25T08:05:37;93700.16;;;17.36;62.85
59009;BME280;44794;42.652;23.318;2023-04-25T08:08:03;93695.22;;;17.78;64.20
59009;BME280;44794;42.652;23.318;2023-04-25T08:10:29;93702.34;;;17.69;61.53
59009;BME280;44794;42.652;23.318;2023-04-25T08:12:55;93698.63;;;18.15;60.78
59009;BME280;44794;42.652;23.318;2023-04-25T08:15:20;93703.78;;;17.94;56.67
59009;BME280;44794;42.652;23.318;2023-04-25T08:17:45;93700.50;;;17.55;59.69
59009;BME280;44794;42.652;23.318;2023-04-25T08:20:11;93695.66;;;17.44;59.28
59009;BME280;44794;42.652;23.318;2023-04-25T08:22:37;93686.44;;;17.18;61.02
59009;BME280;44794;42.652;23.318;2023-04-25T08:25:03;93674.19;;;16.58;60.80
59009;BME280;44794;42.652;23.318;2023-04-25T08:27:28;93678.19;;;17.07;63.19
59009;BME280;44794;42.652;23.318;2023-04-25T08:29:53;93684.59;;;17.27;60.63
59009;BME280;44794;42.652;23.318;2023-04-25T08:32:19;93672.28;;;17.05;60.74
59009;BME280;44794;42.652;23.318;2023-04-25T08:34:46;93687.19;;;17.04;61.51
59009;BME280;44794;42.652;23.318;2023-04-25T08:37:12;93686.28;;;16.59;66.39
59009;BME280;44794;42.652;23.318;2023-04-25T08:39:37;93673.31;;;16.11;68.41
59009;BME280;44794;42.652;23.318;2023-04-25T08:42:06;93686.94;;;15.03;70.17
59009;BME280;44794;42.652;23.318;2023-04-25T08:44:35;93665.44;;;14.60;77.69
59009;BME280;44794;42.652;23.318;2023-04-25T08:47:04;93644.94;;;14.32;80.25
59009;BME280;44794;42.652;23.318;2023-04-25T08:49:32;93659.59;;;14.17;78.93
59009;BME280;44794;42.652;23.318;2023-04-25T08:52:01;93660.50;;;14.41;78.96
59009;BME280;44794;42.652;23.318;2023-04-25T08:54:27;93654.69;;;14.79;75.15
59009;BME280;44794;42.652;23.318;2023-04-25T08:56:54;93655.25;;;15.06;77.07
59009;BME280;44794;42.652;23.318;2023-04-25T08:59:22;93650.50;;;15.18;77.22
59009;BME280;44794;42.652;23.318;2023-04-25T09:01:49;93643.31;;;15.04;79.19
59009;BME280;44794;42.652;23.318;2023-04-25T09:04:15;93631.84;;;14.81;80.93
59009;BME280;44794;42.652;23.318;2023-04-25T09:06:41;93640.34;;;14.83;78.57
59009;BME280;44794;42.652;23.318;2023-04-25T09:09:08;93648.16;;;14.75;79.82
59009;BME280;44794;42.652;23.318;2023-04-25T09:11:35;93645.22;;;14.78;79.03
59009;BME280;44794;42.652;23.318;2023-04-25T09:14:16;93637.25;;;15.19;79.10
59009;BME280;44794;42.652;23.318;2023-04-25T09:19:33;93627.09;;;16.26;78.72
59009;BME280;44794;42.652;23.318;2023-04-25T09:22:02;93638.78;;;16.84;75.75
59009;BME280;44794;42.652;23.318;2023-04-25T09:24:39;93656.03;;;17.09;69.22
59009;BME280;44794;42.652;23.318;2023-04-25T09:27:06;93649.84;;;17.02;70.70
59009;BME280;44794;42.652;23.318;2023-04-25T09:29:35;93651.31;;;17.27;70.81
59009;BME280;44794;42.652;23.318;2023-04-25T09:32:12;93648.13;;;17.39;70.24
59009;BME280;44794;42.652;23.318;2023-04-25T09:34:42;93653.72;;;17.59;68.24
59009;BME280;44794;42.652;23.318;2023-04-25T09:37:11;93652.66;;;17.23;67.70
59009;BME280;44794;42.652;23.318;2023-04-25T09:39:38;93649.38;;;17.43;69.28
59009;BME280;44794;42.652;23.318;2023-04-25T09:42:04;93658.38;;;17.86;66.47
59009;BME280;44794;42.652;23.318;2023-04-25T09:44:30;93668.03;;;17.71;61.46
59009;BME280;44794;42.652;23.318;2023-04-25T09:46:55;93657.84;;;17.90;63.87
59009;BME280;44794;42.652;23.318;2023-04-25T09:49:22;93656.25;;;18.47;64.05
59009;BME280;44794;42.652;23.318;2023-04-25T09:51:57;93653.38;;;18.91;62.09
59009;BME280;44794;42.652;23.318;2023-04-25T09:54:24;93647.97;;;18.79;62.56
59009;BME280;44794;42.652;23.318;2023-04-25T09:56:52;93645.25;;;19.07;61.16
59009;BME280;44794;42.652;23.318;2023-04-25T09:59:21;93656.44;;;19.09;57.22
59009;BME280;44794;42.652;23.318;2023-04-25T10:01:50;93647.31;;;18.77;58.59
59009;BME280;44794;42.652;23.318;2023-04-25T10:04:21;93645.66;;;18.40;59.58
59009;BME280;44794;42.652;23.318;2023-04-25T10:06:49;93640.78;;;18.23;60.03
59009;BME280;44794;42.652;23.318;2023-04-25T10:09:16;93653.75;;;17.88;59.78
59009;BME280;44794;42.652;23.318;2023-04-25T10:11:44;93651.13;;;17.06;61.46
59009;BME280;44794;42.652;23.318;2023-04-25T10:14:12;93673.78;;;16.69;62.99
59009;BME280;44794;42.652;23.318;2023-04-25T10:16:38;93687.81;;;15.36;54.67
59009;BME280;44794;42.652;23.318;2023-04-25T10:19:04;93685.28;;;14.95;58.71
59009;BME280;44794;42.652;23.318;2023-04-25T10:21:31;93656.94;;;14.58;64.52
59009;BME280;44794;42.652;23.318;2023-04-25T10:23:58;93649.00;;;14.27;64.31
59009;BME280;44794;42.652;23.318;2023-04-25T10:26:24;93638.69;;;14.25;64.73
59009;BME280;44794;42.652;23.318;2023-04-25T10:29:01;93630.78;;;14.50;67.26
59009;BME280;44794;42.652;23.318;2023-04-25T10:31:27;93623.88;;;15.06;67.95
59009;BME280;44794;42.652;23.318;2023-04-25T10:33:54;93616.97;;;15.69;67.25
59009;BME280;44794;42.652;23.318;2023-04-25T10:36:24;93631.69;;;16.32;62.65
59009;BME280;44794;42.652;23.318;2023-04-25T10:38:52;93641.41;;;16.84;55.89
59009;BME280;44794;42.652;23.318;2023-04-25T10:41:20;93651.25;;;17.35;53.06
59009;BME280;44794;42.652;23.318;2023-04-25T10:43:46;93631.91;;;17.87;51.29
59009;BME280;44794;42.652;23.318;2023-04-25T10:46:23;93658.50;;;17.55;48.16
59009;BME280;44794;42.652;23.318;2023-04-25T10:48:52;93648.00;;;16.80;51.39
59009;BME280;44794;42.652;23.318;2023-04-25T10:51:26;93650.06;;;16.93;52.95
59009;BME280;44794;42.652;23.318;2023-04-25T10:56:21;93655.91;;;16.42;53.03
59009;BME280;44794;42.652;23.318;2023-04-25T10:58:48;93660.50;;;16.32;52.17
59009;BME280;44794;42.652;23.318;2023-04-25T11:01:14;93652.09;;;16.53;53.42
59009;BME280;44794;42.652;23.318;2023-04-25T11:03:42;93650.81;;;17.01;55.02
59009;BME280;44794;42.652;23.318;2023-04-25T11:06:22;93653.13;;;17.27;52.35
59009;BME280;44794;42.652;23.318;2023-04-25T11:08:50;93640.38;;;17.60;53.20
59009;BME280;44794;42.652;23.318;2023-04-25T11:11:18;93643.91;;;18.04;50.97
59009;BME280;44794;42.652;23.318;2023-04-25T11:13:48;93635.00;;;18.77;51.70
59009;BME280;44794;42.652;23.318;2023-04-25T11:16:14;93641.16;;;19.19;47.66
59009;BME280;44794;42.652;23.318;2023-04-25T11:18:44;93642.25;;;19.25;44.83
59009;BME280;44794;42.652;23.318;2023-04-25T11:21:10;93638.44;;;18.78;45.15
59009;BME280;44794;42.652;23.318;2023-04-25T11:23:36;93646.50;;;17.75;47.11
59009;BME280;44794;42.652;23.318;2023-04-25T11:26:03;93650.63;;;17.55;46.35
59009;BME280;44794;42.652;23.318;2023-04-25T11:28:28;93641.44;;;17.07;49.83
59009;BME280;44794;42.652;23.318;2023-04-25T11:30:54;93643.94;;;16.78;50.14
59009;BME280;44794;42.652;23.318;2023-04-25T11:33:24;93642.16;;;16.24;51.20
59009;BME280;44794;42.652;23.318;2023-04-25T11:35:53;93634.31;;;15.70;53.00
59009;BME280;44794;42.652;23.318;2023-04-25T11:38:20;93635.59;;;15.74;53.70
59009;BME280;44794;42.652;23.318;2023-04-25T11:40:49;93640.41;;;15.47;54.66
59009;BME280;44794;42.652;23.318;2023-04-25T11:43:15;93642.66;;;15.18;58.33
59009;BME280;44794;42.652;23.318;2023-04-25T11:45:41;93664.47;;;14.61;58.62
59009;BME280;44794;42.652;23.318;2023-04-25T11:48:07;93642.00;;;14.02;62.54
59009;BME280;44794;42.652;23.318;2023-04-25T11:50:32;93646.66;;;13.57;68.68
59009;BME280;44794;42.652;23.318;2023-04-25T11:52:57;93646.53;;;13.41;75.86
59009;BME280;44794;42.652;23.318;2023-04-25T11:55:23;93648.50;;;13.22;78.76
59009;BME280;44794;42.652;23.318;2023-04-25T11:57:49;93616.31;;;12.88;87.28
59009;BME280;44794;42.652;23.318;2023-04-25T12:00:21;93586.75;;;12.79;90.80
59009;BME280;44794;42.652;23.318;2023-04-25T12:02:51;93589.13;;;12.90;91.73
59009;BME280;44794;42.652;23.318;2023-04-25T12:05:17;93567.13;;;13.10;94.20
59009;BME280;44794;42.652;23.318;2023-04-25T12:07:42;93572.19;;;13.12;91.72
59009;BME280;44794;42.652;23.318;2023-04-25T12:10:16;93582.41;;;13.05;87.58
59009;BME280;44794;42.652;23.318;2023-04-25T12:12:42;93575.06;;;13.26;89.13
59009;BME280;44794;42.652;23.318;2023-04-25T12:17:35;93577.03;;;13.57;84.59
59009;BME280;44794;42.652;23.318;2023-04-25T12:20:07;93569.34;;;14.30;87.34
59009;BME280;44794;42.652;23.318;2023-04-25T12:22:34;93579.09;;;14.94;83.12
59009;BME280;44794;42.652;23.318;2023-04-25T12:24:59;93593.81;;;15.34;78.72
59009;BME280;44794;42.652;23.318;2023-04-25T12:27:25;93587.50;;;15.75;74.92
59009;BME280;44794;42.652;23.318;2023-04-25T12:29:54;93595.81;;;15.86;72.71
59009;BME280;44794;42.652;23.318;2023-04-25T12:32:20;93608.09;;;16.24;68.57
59009;BME280;44794;42.652;23.318;2023-04-25T12:34:46;93627.63;;;16.60;66.18
59009;BME280;44794;42.652;23.318;2023-04-25T12:37:11;93633.84;;;16.29;66.34
59009;BME280;44794;42.652;23.318;2023-04-25T12:39:37;93645.94;;;15.28;71.06
59009;BME280;44794;42.652;23.318;2023-04-25T12:42:03;93642.94;;;14.75;71.38
59009;BME280;44794;42.652;23.318;2023-04-25T12:44:28;93657.63;;;14.68;72.58
59009;BME280;44794;42.652;23.318;2023-04-25T12:46:54;93669.09;;;14.34;73.46
59009;BME280;44794;42.652;23.318;2023-04-25T12:49:20;93661.19;;;13.85;76.95
59009;BME280;44794;42.652;23.318;2023-04-25T12:51:45;93655.13;;;13.59;80.32